Time;durP1;ratioP1;P1;durP2;ratioP2;P2;SDS_P1;SDS_P2;PMS_P1;PMS_P2;Temp;Humidity;BMP_temperature;BMP_pressure;BME280_temperature;BME280_humidity;BME280_pressure;Samples;Min_cycle;Max_cycle;Signal;HPM_P1;HPM_P2
2022/08/13 00:02:19;;;;;;;3.65;2.47;;;20.90;99.90;;;;;;4959657;28;20664;-79
2022/08/13 00:05:02;;;;;;;3.55;2.53;;;20.90;99.90;;;;;;4973715;28;20061;-80
2022/08/13 00:07:29;;;;;;;3.83;2.40;;;20.80;99.90;;;;;;4983944;28;20047;-80
2022/08/13 00:09:55;;;;;;;3.17;2.28;;;20.70;99.90;;;;;;4991919;28;20206;-79
2022/08/13 00:15:19;;;;;;;4.45;2.28;;;20.60;99.90;;;;;;4988167;28;20054;-79
2022/08/13 00:17:49;;;;;;;4.20;2.53;;;20.60;99.90;;;;;;4983850;28;20047;-80
2022/08/13 00:20:17;;;;;;;3.67;2.40;;;20.50;99.90;;;;;;4982412;28;20844;-80
2022/08/13 00:22:44;;;;;;;5.18;2.55;;;20.50;99.90;;;;;;4958073;28;20057;-80
2022/08/13 00:25:10;;;;;;;4.20;2.13;;;20.50;99.90;;;;;;4948291;28;20060;-80
2022/08/13 00:27:37;;;;;;;3.72;2.63;;;20.40;99.90;;;;;;4959087;28;20047;-80
2022/08/13 00:30:05;;;;;;;4.30;2.25;;;20.40;99.90;;;;;;4942582;28;20503;-80
2022/08/13 00:32:32;;;;;;;3.03;2.38;;;20.30;99.90;;;;;;4943500;28;20043;-80
2022/08/13 00:35:01;;;;;;;3.42;2.47;;;20.30;99.90;;;;;;4974020;28;20133;-80
2022/08/13 00:37:27;;;;;;;6.45;2.83;;;20.20;99.90;;;;;;4988257;28;20045;-81
2022/08/13 00:39:54;;;;;;;4.70;2.65;;;20.20;99.90;;;;;;4991914;28;20092;-78
2022/08/13 00:42:25;;;;;;;4.40;2.53;;;20.10;99.90;;;;;;4974603;28;20493;-79
2022/08/13 00:44:51;;;;;;;4.85;3.00;;;20.10;99.90;;;;;;4947435;28;20440;-78
2022/08/13 00:50:04;;;;;;;4.32;3.25;;;20.00;99.90;;;;;;4990932;28;20481;-79
2022/08/13 00:52:32;;;;;;;5.35;3.50;;;19.90;99.90;;;;;;4975710;28;20094;-80
2022/08/13 00:55:05;;;;;;;3.65;2.97;;;19.90;99.90;;;;;;4973487;28;20078;-80
2022/08/13 00:57:31;;;;;;;6.43;3.90;;;19.80;99.90;;;;;;4959215;28;20042;-80
2022/08/13 00:59:58;;;;;;;5.88;3.88;;;19.70;99.90;;;;;;4971790;28;20046;-79
2022/08/13 01:02:24;;;;;;;4.35;3.17;;;19.60;99.90;;;;;;4974781;28;20043;-79
2022/08/13 01:04:50;;;;;;;5.75;3.15;;;19.60;99.90;;;;;;4989782;28;20117;-78
2022/08/13 01:07:20;;;;;;;5.50;3.50;;;19.60;99.90;;;;;;4975982;28;20116;-79
2022/08/13 01:09:46;;;;;;;5.45;3.50;;;19.60;99.90;;;;;;4977683;28;20436;-80
2022/08/13 01:12:13;;;;;;;6.70;3.70;;;19.50;99.90;;;;;;4974334;28;20113;-79
2022/08/13 01:14:39;;;;;;;5.05;3.90;;;19.50;99.90;;;;;;4990216;28;20043;-79
2022/08/13 01:17:07;;;;;;;5.05;3.80;;;19.50;99.90;;;;;;4966479;28;20121;-79
2022/08/13 01:19:35;;;;;;;7.63;4.20;;;19.50;99.90;;;;;;4979506;28;20054;-78
2022/08/13 01:22:01;;;;;;;4.30;3.42;;;19.40;99.90;;;;;;5000693;28;20152;-79
2022/08/13 01:24:28;;;;;;;6.15;3.55;;;19.30;99.90;;;;;;4994998;28;20077;-79
2022/08/13 01:26:57;;;;;;;4.88;4.05;;;19.30;99.90;;;;;;4951970;28;20046;-79
2022/08/13 01:29:23;;;;;;;7.22;3.80;;;19.30;99.90;;;;;;4993119;28;20050;-80
2022/08/13 01:31:51;;;;;;;6.75;3.70;;;19.20;99.90;;;;;;4974325;28;20128;-79
2022/08/13 01:34:17;;;;;;;6.45;3.80;;;19.20;99.90;;;;;;4957820;28;20427;-80
2022/08/13 01:36:46;;;;;;;5.85;3.97;;;19.10;99.90;;;;;;4972703;28;20054;-79
2022/08/13 01:39:12;;;;;;;4.68;3.63;;;19.10;99.90;;;;;;4958586;28;20055;-80
2022/08/13 01:41:38;;;;;;;5.40;4.28;;;19.10;99.90;;;;;;4957721;28;20042;-80
2022/08/13 01:44:06;;;;;;;8.18;4.60;;;19.10;99.90;;;;;;4958928;28;20124;-79
2022/08/13 01:52:04;;;;;;;5.55;4.35;;;18.90;99.90;;;;;;4948557;28;20138;-79
2022/08/13 01:54:33;;;;;;;5.95;4.20;;;18.90;99.90;;;;;;4944584;28;20484;-79
2022/08/13 01:57:05;;;;;;;6.05;4.10;;;18.90;99.90;;;;;;4993216;28;20051;-79
2022/08/13 01:59:34;;;;;;;6.93;4.57;;;18.80;99.90;;;;;;4990540;28;20046;-79
2022/08/13 02:02:04;;;;;;;5.88;4.03;;;18.80;99.90;;;;;;4960405;28;20110;-79
2022/08/13 02:04:32;;;;;;;5.25;4.10;;;18.80;99.90;;;;;;4962340;28;20076;-78
2022/08/13 02:06:59;;;;;;;5.65;3.90;;;18.80;99.90;;;;;;4990347;28;20055;-79
2022/08/13 02:09:26;;;;;;;5.57;4.60;;;18.70;99.90;;;;;;4928000;28;20114;-79
2022/08/13 02:11:52;;;;;;;6.18;4.53;;;18.70;99.90;;;;;;4989824;28;20523;-79
2022/08/13 02:14:21;;;;;;;5.00;4.32;;;18.70;99.90;;;;;;4963766;28;20050;-78
2022/08/13 02:16:47;;;;;;;4.95;4.45;;;18.60;99.90;;;;;;4975981;28;20126;-78
2022/08/13 02:19:13;;;;;;;6.07;4.03;;;18.60;99.90;;;;;;4974977;28;20051;-80
2022/08/13 02:21:40;;;;;;;5.47;4.63;;;18.50;99.90;;;;;;4941081;28;20129;-79
2022/08/13 02:24:13;;;;;;;9.27;4.80;;;18.50;99.90;;;;;;4990656;28;20047;-79
2022/08/13 02:26:40;;;;;;;6.82;4.43;;;18.50;99.90;;;;;;4971685;28;20552;-80
2022/08/13 02:29:09;;;;;;;6.45;4.55;;;18.50;99.90;;;;;;4966238;28;20054;-80
2022/08/13 02:31:35;;;;;;;5.47;4.35;;;18.40;99.90;;;;;;4972114;28;20133;-80
2022/08/13 02:34:01;;;;;;;5.55;4.97;;;18.40;99.90;;;;;;4975498;28;20058;-79
2022/08/13 02:36:27;;;;;;;8.27;4.68;;;18.30;99.90;;;;;;4970209;28;20042;-78
2022/08/13 02:39:05;;;;;;;5.45;4.45;;;18.40;99.90;;;;;;4989501;28;20061;-79
2022/08/13 02:41:43;;;;;;;5.75;4.47;;;18.40;99.90;;;;;;4946261;28;20046;-80
2022/08/13 02:44:14;;;;;;;6.18;4.93;;;18.30;99.90;;;;;;4955448;28;20322;-79
2022/08/13 02:46:42;;;;;;;5.57;4.68;;;18.30;99.90;;;;;;4989776;28;20055;-79
2022/08/13 02:49:09;;;;;;;6.75;4.70;;;18.30;99.90;;;;;;4956944;28;20417;-75
2022/08/13 02:51:37;;;;;;;7.85;5.10;;;18.30;99.90;;;;;;4954387;28;20158;-79
2022/08/13 02:54:06;;;;;;;8.82;5.15;;;17.90;99.90;;;;;;4973190;28;20439;-80
2022/08/13 02:56:31;;;;;;;5.63;4.95;;;18.20;99.90;;;;;;4960252;28;20073;-80
2022/08/13 02:58:57;;;;;;;6.38;5.22;;;18.20;99.90;;;;;;4959184;28;20085;-79
2022/08/13 03:01:25;;;;;;;7.18;5.45;;;18.20;99.90;;;;;;4954304;28;20100;-80
2022/08/13 03:03:52;;;;;;;6.55;5.00;;;18.10;99.90;;;;;;4941612;28;20046;-79
2022/08/13 03:06:21;;;;;;;5.57;4.85;;;18.10;99.90;;;;;;4971124;28;20053;-80
2022/08/13 03:08:52;;;;;;;7.07;5.07;;;18.10;99.90;;;;;;4973327;28;20511;-79
2022/08/13 03:11:19;;;;;;;6.45;4.45;;;18.00;99.90;;;;;;4942668;28;20057;-78
2022/08/13 03:13:56;;;;;;;5.38;4.60;;;18.00;99.90;;;;;;4958079;28;20051;-79
2022/08/13 03:16:25;;;;;;;5.25;4.75;;;18.00;99.90;;;;;;4988620;28;20125;-79
2022/08/13 03:18:53;;;;;;;6.05;4.88;;;18.00;99.90;;;;;;4973011;28;20063;-80
2022/08/13 03:21:33;;;;;;;5.65;5.05;;;17.90;99.90;;;;;;4989658;28;20522;-79
2022/08/13 03:24:00;;;;;;;5.53;4.70;;;17.90;99.90;;;;;;4972233;28;20793;-77
2022/08/13 03:26:26;;;;;;;7.28;5.05;;;17.90;99.90;;;;;;4939355;28;20451;-79
2022/08/13 03:28:53;;;;;;;7.70;4.60;;;17.90;99.90;;;;;;4941054;28;20049;-79
2022/08/13 03:31:20;;;;;;;5.45;4.40;;;17.90;99.90;;;;;;4926788;28;20489;-78
2022/08/13 03:33:46;;;;;;;8.27;4.65;;;17.80;99.90;;;;;;4959656;28;20062;-78
2022/08/13 03:36:13;;;;;;;5.50;5.00;;;17.80;99.90;;;;;;4989718;28;20391;-79
2022/08/13 03:38:39;;;;;;;7.30;5.10;;;17.80;99.90;;;;;;4989103;28;20488;-80
2022/08/13 03:41:14;;;;;;;6.40;5.13;;;17.80;99.90;;;;;;4988402;28;20873;-78
2022/08/13 03:43:45;;;;;;;5.78;4.72;;;17.70;99.90;;;;;;4941254;28;20100;-78
2022/08/13 03:46:21;;;;;;;5.60;5.00;;;17.70;99.90;;;;;;4972458;28;20381;-80
2022/08/13 03:48:49;;;;;;;8.00;4.90;;;17.70;99.90;;;;;;4977511;28;20153;-80
2022/08/13 03:51:16;;;;;;;5.80;5.00;;;17.70;99.90;;;;;;4955344;28;20497;-79
2022/08/13 03:53:43;;;;;;;6.40;4.47;;;17.70;99.90;;;;;;4988017;28;20074;-80
2022/08/13 03:56:10;;;;;;;5.80;4.80;;;17.60;99.90;;;;;;4986038;28;20066;-78
2022/08/13 03:58:37;;;;;;;7.05;4.90;;;17.60;99.90;;;;;;4970669;28;20369;-79
2022/08/13 04:01:04;;;;;;;5.57;4.97;;;17.60;99.90;;;;;;4987048;28;20055;-78
2022/08/13 04:03:36;;;;;;;6.82;4.80;;;17.60;99.90;;;;;;4987557;28;20049;-79
2022/08/13 04:06:15;;;;;;;6.05;4.88;;;17.60;99.90;;;;;;4970880;28;20132;-80
2022/08/13 04:08:42;;;;;;;7.35;5.10;;;17.50;99.90;;;;;;4959583;28;20058;-77
2022/08/13 04:11:12;;;;;;;5.65;5.15;;;17.50;99.90;;;;;;4991371;28;20062;-80
2022/08/13 04:13:38;;;;;;;6.80;4.28;;;17.50;99.90;;;;;;4976438;28;20507;-79
2022/08/13 04:16:10;;;;;;;7.57;4.93;;;17.50;99.90;;;;;;4972848;28;20054;-79
2022/08/13 04:18:39;;;;;;;7.50;5.30;;;17.40;99.90;;;;;;4990998;28;20081;-79
2022/08/13 04:21:09;;;;;;;6.03;5.32;;;17.40;99.90;;;;;;4949708;28;20507;-79
2022/08/13 04:23:41;;;;;;;9.30;5.07;;;17.40;99.90;;;;;;4944379;28;20051;-79
2022/08/13 04:26:08;;;;;;;6.38;5.15;;;17.40;99.90;;;;;;4990668;28;20440;-79
2022/08/13 04:28:35;;;;;;;7.82;4.88;;;17.40;99.90;;;;;;4959470;28;20058;-78
2022/08/13 04:31:02;;;;;;;5.18;4.45;;;17.30;99.90;;;;;;4976584;28;20089;-79
2022/08/13 04:33:27;;;;;;;5.88;4.45;;;17.30;99.90;;;;;;4990431;28;20042;-80
2022/08/13 04:35:56;;;;;;;5.30;4.80;;;17.30;99.90;;;;;;4962419;28;20774;-79
2022/08/13 04:38:22;;;;;;;6.90;5.18;;;17.30;99.90;;;;;;4944443;28;20073;-79
2022/08/13 04:40:48;;;;;;;5.57;4.10;;;17.30;99.90;;;;;;4973158;28;20495;-79
2022/08/13 04:43:14;;;;;;;5.25;4.75;;;17.30;99.90;;;;;;4936109;28;20050;-79
2022/08/13 04:45:41;;;;;;;7.00;4.82;;;17.20;99.90;;;;;;4931045;28;21240;-80
2022/08/13 04:48:13;;;;;;;9.18;5.10;;;17.30;99.90;;;;;;4945937;28;20548;-79
2022/08/13 04:50:42;;;;;;;8.60;4.60;;;17.30;99.90;;;;;;4966468;28;20148;-75
2022/08/13 04:53:20;;;;;;;8.77;5.00;;;17.20;99.90;;;;;;4991637;28;20053;-82
2022/08/13 04:55:47;;;;;;;5.55;4.65;;;17.20;99.90;;;;;;5008597;28;20137;-81
2022/08/13 04:58:13;;;;;;;7.85;4.45;;;17.30;99.90;;;;;;4974660;28;20058;-81
2022/08/13 05:00:39;;;;;;;5.78;4.20;;;17.30;99.90;;;;;;4994421;28;20483;-80
2022/08/13 05:03:13;;;;;;;5.82;4.75;;;17.20;99.90;;;;;;4964791;28;20061;-81
2022/08/13 05:05:40;;;;;;;6.38;4.50;;;17.30;99.90;;;;;;4991831;28;20149;-82
2022/08/13 05:08:07;;;;;;;5.28;4.43;;;17.30;99.90;;;;;;4954573;28;20050;-84
2022/08/13 05:10:37;;;;;;;5.00;4.30;;;17.30;99.90;;;;;;4934329;28;20125;-78
2022/08/13 05:13:05;;;;;;;4.88;4.13;;;17.30;99.90;;;;;;4990227;28;20051;-79
2022/08/13 05:15:35;;;;;;;6.68;4.15;;;17.30;99.90;;;;;;4935613;28;20053;-84
2022/08/13 05:18:00;;;;;;;7.07;3.88;;;17.30;99.90;;;;;;4968312;28;20042;-83
2022/08/13 05:20:26;;;;;;;5.45;4.07;;;17.40;99.90;;;;;;4943279;28;20065;-81
2022/08/13 05:22:56;;;;;;;6.38;4.95;;;17.40;99.90;;;;;;4992171;28;20049;-78
2022/08/13 05:25:21;;;;;;;5.85;4.10;;;17.40;99.90;;;;;;4961384;28;20050;-81
2022/08/13 05:27:47;;;;;;;7.25;4.22;;;17.40;99.90;;;;;;4930210;28;20041;-82
2022/08/13 05:30:14;;;;;;;5.30;4.25;;;17.50;99.90;;;;;;4934438;28;20103;-81
2022/08/13 05:32:40;;;;;;;6.38;4.38;;;17.50;99.90;;;;;;4977398;28;20474;-81
2022/08/13 05:35:11;;;;;;;4.72;4.30;;;17.20;99.90;;;;;;4946531;28;20510;-82
2022/08/13 05:37:37;;;;;;;4.85;3.72;;;17.60;99.90;;;;;;4989977;28;20182;-81
2022/08/13 05:40:04;;;;;;;5.03;4.05;;;17.60;99.90;;;;;;4943515;28;20084;-79
2022/08/13 05:42:33;;;;;;;4.28;3.88;;;17.60;99.90;;;;;;4971897;28;20104;-81
2022/08/13 05:44:59;;;;;;;7.03;3.40;;;17.60;99.90;;;;;;4930851;28;20485;-82
2022/08/13 05:47:26;;;;;;;6.55;3.75;;;17.70;99.90;;;;;;4958165;28;20054;-83
2022/08/13 05:49:53;;;;;;;4.18;3.42;;;17.70;99.90;;;;;;4978708;28;20066;-80
2022/08/13 05:52:19;;;;;;;7.20;4.03;;;17.80;99.90;;;;;;4942586;28;20054;-81
2022/08/13 05:54:44;;;;;;;3.95;3.30;;;17.80;99.90;;;;;;4974037;28;20046;-80
2022/08/13 05:57:10;;;;;;;5.60;3.65;;;17.90;99.90;;;;;;4933053;28;20046;-80
2022/08/13 06:05:04;;;;;;;5.88;3.85;;;18.10;99.90;;;;;;4958731;28;20173;-81
2022/08/13 06:07:30;;;;;;;4.90;2.70;;;18.10;99.90;;;;;;4979335;28;20038;-80
2022/08/13 06:09:57;;;;;;;3.20;2.55;;;18.20;99.90;;;;;;4978963;28;20136;-80
2022/08/13 06:12:24;;;;;;;3.92;2.88;;;18.30;99.90;;;;;;4943925;28;20121;-82
2022/08/13 06:14:51;;;;;;;3.60;2.90;;;18.30;99.90;;;;;;4966488;28;20050;-81
2022/08/13 06:17:18;;;;;;;4.28;3.13;;;18.40;99.90;;;;;;4958206;28;20070;-81
2022/08/13 06:19:44;;;;;;;4.28;3.50;;;18.50;99.90;;;;;;4974866;28;20129;-80
2022/08/13 06:22:11;;;;;;;4.18;3.55;;;18.70;99.90;;;;;;4976710;28;20110;-81
2022/08/13 06:24:37;;;;;;;4.80;3.10;;;18.80;99.90;;;;;;4983590;28;20681;-81
2022/08/13 06:27:07;;;;;;;5.60;3.38;;;19.00;99.90;;;;;;4962750;28;20035;-78
2022/08/13 06:29:35;;;;;;;4.47;2.63;;;19.10;99.90;;;;;;4948292;28;20050;-81
2022/08/13 06:32:03;;;;;;;4.70;3.10;;;19.20;99.90;;;;;;4978878;28;20078;-81
2022/08/13 06:34:35;;;;;;;3.67;2.97;;;19.30;99.90;;;;;;4961560;28;20046;-80
2022/08/13 06:37:08;;;;;;;4.07;3.17;;;19.50;99.90;;;;;;4945306;28;20504;-80
2022/08/13 06:39:36;;;;;;;4.55;3.03;;;19.70;99.90;;;;;;4948162;28;20062;-79
2022/08/13 06:42:03;;;;;;;6.10;2.95;;;19.90;99.90;;;;;;4986306;28;20046;-79
2022/08/13 06:44:32;;;;;;;3.72;2.72;;;20.00;99.90;;;;;;5005267;28;20443;-79
2022/08/13 06:47:03;;;;;;;5.72;3.08;;;20.20;99.90;;;;;;4957993;28;20113;-77
2022/08/13 06:49:33;;;;;;;3.58;2.67;;;20.40;99.90;;;;;;4934155;28;20077;-79
2022/08/13 06:52:00;;;;;;;7.20;2.80;;;20.60;99.90;;;;;;4966996;28;20133;-79
2022/08/13 06:54:28;;;;;;;3.60;2.60;;;20.80;99.90;;;;;;4978101;28;20038;-82
2022/08/13 06:56:56;;;;;;;6.85;2.70;;;21.00;99.90;;;;;;4980544;28;20137;-81
2022/08/13 06:59:25;;;;;;;5.03;2.30;;;21.20;99.90;;;;;;4992855;28;20163;-82
2022/08/13 07:02:01;;;;;;;5.65;2.30;;;21.40;99.90;;;;;;4982265;28;20042;-81
2022/08/13 07:04:27;;;;;;;4.05;2.28;;;21.60;99.90;;;;;;4945413;28;20130;-82
2022/08/13 07:06:55;;;;;;;3.22;2.17;;;21.80;99.90;;;;;;4948715;28;20051;-81
2022/08/13 07:09:23;;;;;;;3.88;2.30;;;22.00;99.90;;;;;;4975898;28;20121;-82
2022/08/13 07:11:51;;;;;;;3.90;2.10;;;22.20;99.90;;;;;;4975331;28;20051;-81
2022/08/13 07:14:17;;;;;;;3.47;1.95;;;22.40;99.90;;;;;;4974995;28;20112;-83
2022/08/13 07:16:45;;;;;;;4.85;2.20;;;22.60;99.90;;;;;;4978881;28;20597;-82
2022/08/13 07:19:12;;;;;;;3.28;1.88;;;22.80;99.90;;;;;;4961778;28;20081;-83
2022/08/13 07:21:39;;;;;;;3.00;1.80;;;23.00;99.90;;;;;;4976104;28;20046;-80
2022/08/13 07:24:07;;;;;;;3.97;1.58;;;23.20;99.90;;;;;;4991177;28;20069;-82
2022/08/13 07:26:34;;;;;;;3.70;1.88;;;23.50;99.90;;;;;;4973923;28;20077;-81
2022/08/13 07:29:05;;;;;;;3.85;1.92;;;23.70;99.90;;;;;;4956236;28;20055;-80
2022/08/13 07:31:33;;;;;;;3.17;1.60;;;23.80;99.90;;;;;;4972252;28;20137;-79
2022/08/13 07:34:03;;;;;;;3.63;1.80;;;23.90;99.90;;;;;;4992053;28;20051;-82
2022/08/13 07:36:32;;;;;;;3.90;1.90;;;24.20;99.90;;;;;;4973602;28;20082;-75
2022/08/13 07:39:01;;;;;;;2.45;1.95;;;24.40;99.90;;;;;;4948429;28;20054;-79
2022/08/13 07:41:27;;;;;;;2.55;1.70;;;24.70;99.90;;;;;;4971887;28;20133;-77
2022/08/13 07:43:53;;;;;;;3.28;1.90;;;24.90;99.90;;;;;;4964930;28;20178;-75
2022/08/13 07:46:19;;;;;;;3.45;1.70;;;25.00;99.90;;;;;;4948240;28;20055;-76
2022/08/13 07:48:49;;;;;;;3.08;1.80;;;25.20;99.90;;;;;;4949897;28;20543;-76
2022/08/13 07:51:19;;;;;;;3.35;1.50;;;25.30;99.90;;;;;;4977156;28;20062;-75
2022/08/13 07:53:54;;;;;;;5.18;1.50;;;25.50;99.90;;;;;;4947655;28;20071;-75
2022/08/13 07:56:31;;;;;;;3.85;1.50;;;25.70;99.90;;;;;;4964138;28;20046;-76
2022/08/13 07:59:06;;;;;;;2.72;1.30;;;26.00;99.40;;;;;;4962928;28;20047;-78
2022/08/13 08:01:44;;;;;;;3.03;1.52;;;26.20;99.70;;;;;;4978583;28;20039;-78
2022/08/13 08:04:13;;;;;;;2.15;1.40;;;26.30;99.10;;;;;;4992577;28;20529;-76
2022/08/13 08:06:45;;;;;;;3.10;1.60;;;26.50;99.00;;;;;;4961575;28;20114;-76
2022/08/13 08:09:18;;;;;;;2.85;1.30;;;26.80;98.70;;;;;;4994844;28;20055;-81
2022/08/13 08:14:30;;;;;;;4.53;1.63;;;27.30;98.20;;;;;;4987923;28;20114;-76
2022/08/13 08:17:00;;;;;;;1.92;1.30;;;27.60;98.00;;;;;;4981481;28;20088;-76
2022/08/13 08:19:31;;;;;;;3.65;1.50;;;27.70;97.20;;;;;;4964264;28;20054;-77
2022/08/13 08:21:59;;;;;;;5.35;1.67;;;27.90;96.70;;;;;;4948051;28;20051;-77
2022/08/13 08:24:28;;;;;;;3.28;1.20;;;28.20;96.30;;;;;;4995240;28;20544;-76
2022/08/13 08:26:55;;;;;;;3.55;1.23;;;28.40;95.80;;;;;;4994678;28;20500;-77
2022/08/13 08:29:22;;;;;;;3.85;1.33;;;28.50;95.30;;;;;;4948293;28;20065;-76
2022/08/13 08:31:50;;;;;;;4.70;1.20;;;28.70;94.60;;;;;;4954381;28;20042;-77
2022/08/13 08:34:18;;;;;;;2.45;1.02;;;29.00;93.90;;;;;;4961282;28;20173;-75
2022/08/13 08:36:44;;;;;;;3.50;1.20;;;29.10;92.90;;;;;;4974711;28;20058;-75
2022/08/13 08:44:44;;;;;;;4.18;1.10;;;29.50;91.10;;;;;;4993209;28;20649;-76
2022/08/13 08:47:10;;;;;;;2.85;1.10;;;29.70;90.50;;;;;;4991025;28;20043;-76
2022/08/13 08:49:39;;;;;;;2.38;1.20;;;30.00;90.10;;;;;;4963776;28;20124;-77
2022/08/13 08:52:05;;;;;;;2.05;0.95;;;30.30;89.10;;;;;;4995167;28;20539;-76
2022/08/13 08:54:31;;;;;;;4.05;1.00;;;30.50;86.90;;;;;;4944599;28;20055;-76
2022/08/13 08:56:58;;;;;;;2.22;0.82;;;30.50;84.40;;;;;;4993370;28;20078;-75
2022/08/13 08:59:39;;;;;;;3.03;1.15;;;30.60;82.40;;;;;;4977350;28;20042;-77
2022/08/13 09:02:18;;;;;;;2.10;0.90;;;30.80;79.70;;;;;;4992604;28;20054;-77
2022/08/13 09:04:54;;;;;;;3.50;0.90;;;30.90;80.40;;;;;;4990844;28;20149;-76
2022/08/13 09:07:23;;;;;;;7.10;1.10;;;31.10;80.10;;;;;;4977087;28;20044;-78
2022/08/13 09:09:54;;;;;;;3.15;1.00;;;31.30;78.20;;;;;;4974681;28;20047;-77
2022/08/13 09:12:26;;;;;;;2.50;0.93;;;31.60;77.40;;;;;;4955694;28;20400;-77
2022/08/13 09:14:52;;;;;;;2.60;1.15;;;31.90;75.90;;;;;;4960182;28;20126;-76
2022/08/13 09:17:19;;;;;;;3.20;0.88;;;32.20;76.00;;;;;;4978570;28;20047;-77
2022/08/13 09:19:46;;;;;;;1.25;0.63;;;32.10;71.90;;;;;;4992566;28;20081;-76
2022/08/13 09:22:14;;;;;;;1.80;1.00;;;32.20;70.80;;;;;;4944909;28;20114;-76
2022/08/13 09:24:45;;;;;;;2.58;0.90;;;32.30;70.40;;;;;;4993306;28;20448;-76
2022/08/13 09:27:15;;;;;;;3.88;1.00;;;32.40;70.30;;;;;;4961265;28;20183;-76
2022/08/13 09:29:42;;;;;;;1.45;0.70;;;32.60;69.20;;;;;;4975589;28;20059;-75
2022/08/13 09:32:09;;;;;;;3.95;0.88;;;32.80;68.40;;;;;;4961001;28;20419;-75
2022/08/13 09:34:39;;;;;;;3.90;1.00;;;32.90;66.30;;;;;;4959465;28;20473;-77
2022/08/13 09:37:07;;;;;;;5.63;0.90;;;33.20;65.70;;;;;;4945035;28;20420;-76
2022/08/13 09:39:38;;;;;;;2.33;0.80;;;33.20;65.60;;;;;;4975628;28;20408;-76
2022/08/13 09:42:12;;;;;;;6.65;0.93;;;33.20;64.10;;;;;;4992889;28;20055;-77
2022/08/13 09:44:41;;;;;;;4.72;0.98;;;33.40;64.10;;;;;;4962062;28;20050;-76
2022/08/13 09:47:10;;;;;;;2.92;0.80;;;33.50;63.50;;;;;;4960220;28;20066;-77
2022/08/13 09:49:36;;;;;;;1.35;0.70;;;33.60;62.70;;;;;;4945949;28;20113;-77
2022/08/13 09:52:02;;;;;;;2.65;0.88;;;33.60;62.30;;;;;;4977428;28;20095;-76
2022/08/13 09:54:28;;;;;;;2.50;0.98;;;33.70;62.30;;;;;;4956491;28;20083;-77
2022/08/13 09:56:58;;;;;;;1.23;0.63;;;33.80;61.70;;;;;;4935423;28;20130;-77
2022/08/13 09:59:24;;;;;;;2.03;0.80;;;34.10;61.70;;;;;;4974496;28;20092;-75
2022/08/13 10:01:50;;;;;;;4.35;0.90;;;34.00;60.50;;;;;;4970750;28;20133;-76
2022/08/13 10:04:19;;;;;;;2.75;0.80;;;34.10;60.60;;;;;;4987811;28;20110;-76
2022/08/13 10:06:47;;;;;;;3.38;0.70;;;34.30;59.60;;;;;;4968993;28;20931;-76
2022/08/13 10:09:14;;;;;;;1.73;0.80;;;34.60;59.70;;;;;;4945745;28;20039;-76
2022/08/13 10:11:40;;;;;;;2.67;0.63;;;34.70;58.70;;;;;;4963001;28;20062;-75
2022/08/13 10:14:06;;;;;;;1.42;0.80;;;34.90;58.30;;;;;;4985676;28;20165;-81
2022/08/13 10:16:33;;;;;;;2.75;0.82;;;35.20;57.50;;;;;;4970120;28;20133;-79
2022/08/13 10:19:01;;;;;;;1.88;0.85;;;35.00;56.30;;;;;;4968066;28;20544;-80
2022/08/13 10:21:27;;;;;;;2.20;0.80;;;35.00;56.70;;;;;;4971503;28;20050;-80
2022/08/13 10:23:53;;;;;;;0.95;0.68;;;34.90;56.50;;;;;;4953674;28;20149;-80
2022/08/13 10:26:19;;;;;;;1.60;0.70;;;35.10;57.50;;;;;;4953769;28;20043;-81
2022/08/13 10:28:48;;;;;;;1.58;0.80;;;35.10;55.90;;;;;;4988051;28;20134;-80
2022/08/13 10:31:14;;;;;;;3.20;0.85;;;35.20;55.80;;;;;;4970763;28;20042;-82
2022/08/13 10:33:40;;;;;;;3.85;0.82;;;35.20;55.40;;;;;;4951560;28;20089;-78
2022/08/13 10:36:07;;;;;;;1.38;0.80;;;35.40;55.00;;;;;;4974031;28;20047;-78
2022/08/13 10:38:33;;;;;;;3.33;0.75;;;35.40;54.40;;;;;;4956340;28;20071;-78
2022/08/13 10:41:08;;;;;;;1.58;0.50;;;35.20;53.40;;;;;;4979129;28;20121;-77
2022/08/13 10:43:37;;;;;;;1.92;0.90;;;35.10;53.70;;;;;;4979359;28;20554;-79
2022/08/13 10:46:03;;;;;;;1.67;0.80;;;35.20;54.70;;;;;;4961463;28;20046;-78
2022/08/13 10:48:29;;;;;;;1.83;0.77;;;35.10;53.80;;;;;;4956111;28;20476;-78
2022/08/13 10:51:01;;;;;;;1.98;0.85;;;35.20;53.90;;;;;;4982224;28;20077;-78
2022/08/13 10:56:11;;;;;;;1.23;0.70;;;35.80;54.10;;;;;;4986318;28;20133;-79
2022/08/13 10:58:39;;;;;;;1.92;0.75;;;36.20;54.10;;;;;;4985429;28;20053;-79
2022/08/13 11:01:05;;;;;;;3.55;0.90;;;36.10;53.30;;;;;;4954131;28;20076;-78
2022/08/13 11:03:31;;;;;;;4.25;0.90;;;36.00;52.50;;;;;;4954718;28;20051;-78
2022/08/13 11:06:00;;;;;;;1.83;0.70;;;36.10;51.90;;;;;;4954281;28;20493;-80
2022/08/13 11:08:37;;;;;;;1.85;0.90;;;36.40;52.10;;;;;;4955488;28;20054;-79
2022/08/13 11:11:08;;;;;;;3.45;0.80;;;36.40;51.60;;;;;;4959484;28;20062;-79
2022/08/13 11:13:37;;;;;;;3.78;0.90;;;36.50;50.90;;;;;;4974830;28;20058;-78
2022/08/13 11:16:56;;;;;;;2.72;1.00;;;36.60;51.80;;;;;;4989950;28;20106;-77
2022/08/13 11:18:54;;;;;;;3.58;0.93;;;36.90;52.10;;;;;;4962911;28;20057;-79
2022/08/13 11:21:24;;;;;;;1.55;0.80;;;37.00;51.50;;;;;;4993037;28;20520;-78
2022/08/13 11:23:51;;;;;;;3.53;0.73;;;37.20;51.80;;;;;;4949046;28;20078;-79
2022/08/13 11:26:17;;;;;;;2.65;0.68;;;37.40;51.20;;;;;;4948363;28;20118;-78
2022/08/13 11:28:42;;;;;;;1.90;0.80;;;37.50;51.50;;;;;;4958821;28;20055;-76
2022/08/13 11:31:08;;;;;;;1.63;0.77;;;37.40;50.40;;;;;;4961865;28;20557;-77
2022/08/13 11:33:34;;;;;;;3.78;0.70;;;37.00;49.60;;;;;;4962054;28;20412;-77
2022/08/13 11:36:00;;;;;;;3.58;0.80;;;36.80;49.20;;;;;;4962445;28;20358;-79
2022/08/13 11:38:25;;;;;;;1.95;0.70;;;36.80;49.90;;;;;;4961925;28;20078;-79
2022/08/13 11:40:58;;;;;;;1.52;0.55;;;36.90;49.00;;;;;;4946603;28;20082;-78
2022/08/13 11:43:27;;;;;;;2.63;0.75;;;36.90;47.80;;;;;;4993524;28;20129;-79
2022/08/13 11:45:53;;;;;;;3.70;0.93;;;37.10;49.00;;;;;;4992504;28;20059;-79
2022/08/13 11:48:20;;;;;;;1.30;0.82;;;37.10;48.80;;;;;;4946220;28;20047;-80
2022/08/13 11:50:47;;;;;;;2.05;0.70;;;37.30;48.90;;;;;;4979545;28;20058;-79
2022/08/13 11:53:13;;;;;;;1.58;0.80;;;37.40;48.20;;;;;;4978610;28;20062;-79
2022/08/13 11:55:38;;;;;;;3.13;0.63;;;37.40;48.50;;;;;;4962203;28;20054;-78
2022/08/13 11:58:08;;;;;;;3.30;0.70;;;37.30;47.90;;;;;;4977819;28;20462;-78
2022/08/13 12:00:35;;;;;;;1.25;0.80;;;37.20;47.50;;;;;;4993495;28;20182;-77
2022/08/13 12:03:01;;;;;;;1.75;0.70;;;37.30;47.50;;;;;;4976852;28;20441;-78
2022/08/13 12:05:27;;;;;;;1.60;0.65;;;37.40;47.80;;;;;;4961415;28;20043;-80
2022/08/13 12:07:53;;;;;;;2.20;0.63;;;37.40;47.90;;;;;;4959391;28;20058;-79
2022/08/13 12:10:19;;;;;;;1.58;0.77;;;37.50;47.50;;;;;;4979721;28;20107;-81
2022/08/13 12:12:46;;;;;;;2.03;0.60;;;37.60;47.30;;;;;;4978620;28;20435;-81
2022/08/13 12:15:13;;;;;;;1.45;0.68;;;37.60;47.40;;;;;;4979127;28;20113;-80
2022/08/13 12:17:44;;;;;;;1.25;0.80;;;37.30;47.00;;;;;;4962718;28;20121;-80
2022/08/13 12:20:11;;;;;;;2.28;1.10;;;37.10;46.80;;;;;;4973540;28;20059;-81
2022/08/13 12:22:37;;;;;;;2.80;0.77;;;36.90;47.00;;;;;;4962888;28;20055;-80
2022/08/13 12:25:04;;;;;;;2.05;0.70;;;37.00;47.20;;;;;;4974852;28;20055;-82
2022/08/13 12:27:30;;;;;;;2.22;0.77;;;37.30;47.00;;;;;;4979486;28;20055;-81
2022/08/13 12:29:56;;;;;;;1.42;0.80;;;37.20;46.30;;;;;;4959180;28;20057;-81
2022/08/13 12:32:21;;;;;;;2.72;0.80;;;37.30;46.90;;;;;;4943880;28;20090;-80
2022/08/13 12:34:47;;;;;;;1.67;0.68;;;37.20;45.60;;;;;;4959921;28;20070;-79
2022/08/13 12:37:13;;;;;;;4.15;0.70;;;37.20;45.60;;;;;;4961812;28;20049;-81
2022/08/13 12:39:38;;;;;;;2.67;0.70;;;37.30;45.90;;;;;;4962244;28;20050;-81
2022/08/13 12:42:05;;;;;;;1.42;0.80;;;37.60;46.10;;;;;;4946962;28;20050;-81
2022/08/13 12:44:30;;;;;;;2.97;0.70;;;37.60;45.40;;;;;;4930327;28;20054;-82
2022/08/13 12:46:56;;;;;;;3.15;0.60;;;37.60;45.40;;;;;;4961010;28;20058;-80
2022/08/13 12:49:22;;;;;;;2.40;0.50;;;37.60;45.20;;;;;;4949478;28;20046;-81
2022/08/13 12:51:48;;;;;;;1.05;0.50;;;37.60;45.20;;;;;;4930360;28;20059;-80
2022/08/13 12:54:14;;;;;;;1.33;0.80;;;37.50;44.90;;;;;;4960199;28;20051;-80
2022/08/13 12:56:39;;;;;;;2.25;0.68;;;37.30;44.90;;;;;;4964201;28;20248;-81
2022/08/13 12:59:05;;;;;;;2.42;0.60;;;37.20;45.40;;;;;;4975841;28;20058;-81
2022/08/13 13:01:32;;;;;;;3.38;0.60;;;37.30;45.30;;;;;;4931110;28;20539;-80
2022/08/13 13:03:58;;;;;;;2.78;0.70;;;37.30;45.00;;;;;;4977781;28;20079;-81
2022/08/13 13:06:24;;;;;;;1.10;0.60;;;37.60;45.20;;;;;;4977638;28;20043;-82
2022/08/13 13:08:50;;;;;;;2.15;0.60;;;37.80;44.80;;;;;;4977096;28;20051;-82
2022/08/13 13:11:16;;;;;;;1.08;0.60;;;38.10;45.10;;;;;;4953594;28;20070;-81
2022/08/13 13:13:44;;;;;;;1.40;0.65;;;38.40;44.30;;;;;;4945581;28;20117;-81
2022/08/13 13:16:10;;;;;;;2.47;0.63;;;38.60;44.20;;;;;;4978136;28;20051;-81
2022/08/13 13:18:36;;;;;;;1.38;0.70;;;38.70;43.90;;;;;;4929235;28;20108;-79
2022/08/13 13:21:02;;;;;;;1.15;0.50;;;38.70;44.20;;;;;;4945408;28;20046;-78